Time;durP1;ratioP1;P1;durP2;ratioP2;P2;SDS_P1;SDS_P2;PMS_P1;PMS_P2;Temp;Humidity;BMP_temperature;BMP_pressure;BME280_temperature;BME280_humidity;BME280_pressure;Samples;Min_cycle;Max_cycle;Signal;HPM_P1;HPM_P2
2021/11/11 00:00:25;;;;;;;;;;;;;;;19.87;36.44;96142.25;1040742;28;835;-60
2021/11/11 00:00:56;;;;;;;;;;;;;;;19.87;36.45;96140.41;1040013;28;772;-58
2021/11/11 00:01:26;;;;;;;;;;;;;;;19.86;36.42;96132.78;1040471;28;1038;-59
2021/11/11 00:01:56;;;;;;;;;;;;;;;19.85;36.54;96121.47;1041022;28;1018;-60
2021/11/11 00:02:26;;;;;;;;;;;;;;;19.86;36.48;96119.63;1040760;28;851;-59
2021/11/11 00:02:57;;;;;;;;;;;;;;;19.87;36.40;96121.19;1044463;28;950;-60
2021/11/11 00:03:28;;;;;;;;;;;;;;;19.88;36.53;96118.34;1044470;28;1260;-57
2021/11/11 00:03:58;;;;;;;;;;;;;;;19.87;36.27;96115.94;1044284;28;805;-59
2021/11/11 00:04:29;;;;;;;;;;;;;;;19.86;36.29;96114.38;1040152;28;1345;-60
2021/11/11 00:04:59;;;;;;;;;;;;;;;19.86;36.31;96117.00;1040778;28;990;-60
2021/11/11 00:05:29;;;;;;;;;;;;;;;19.85;36.55;96115.41;1040409;28;757;-59
2021/11/11 00:06:00;;;;;;;;;;;;;;;19.85;36.33;96115.41;1032125;28;983;-60
2021/11/11 00:06:30;;;;;;;;;;;;;;;19.84;36.37;96113.84;1032609;28;1336;-59
2021/11/11 00:07:02;;;;;;;;;;;;;;;19.84;36.32;96116.47;1032607;28;726;-59
2021/11/11 00:07:33;;;;;;;;;;;;;;;19.83;36.49;96113.06;1032262;28;1117;-59
2021/11/11 00:08:03;;;;;;;;;;;;;;;19.85;36.34;96105.69;1040714;28;871;-59
2021/11/11 00:08:34;;;;;;;;;;;;;;;19.84;36.34;96103.31;1041037;28;1210;-60
2021/11/11 00:09:05;;;;;;;;;;;;;;;19.85;36.48;96104.88;1044392;28;942;-58
2021/11/11 00:09:35;;;;;;;;;;;;;;;19.84;36.27;96108.59;1044673;28;1074;-59
2021/11/11 00:10:09;;;;;;;;;;;;;;;19.85;36.38;96097.00;1044913;28;1113;-59
2021/11/11 00:10:39;;;;;;;;;;;;;;;19.84;36.32;96103.31;1044182;28;880;-60
2021/11/11 00:11:10;;;;;;;;;;;;;;;19.83;36.37;96107.00;1040382;28;851;-59
2021/11/11 00:11:40;;;;;;;;;;;;;;;19.84;36.24;96103.31;1040312;28;1595;-58
2021/11/11 00:12:11;;;;;;;;;;;;;;;19.84;36.42;96092.81;1040070;28;847;-59
2021/11/11 00:12:41;;;;;;;;;;;;;;;19.82;36.30;96098.34;1044495;28;1925;-59
2021/11/11 00:13:12;;;;;;;;;;;;;;;19.82;36.31;96100.16;1036380;28;1324;-60
2021/11/11 00:13:42;;;;;;;;;;;;;;;19.83;36.20;96101.72;1035552;28;1247;-59
2021/11/11 00:14:12;;;;;;;;;;;;;;;19.81;36.35;96095.94;1036152;28;844;-59
2021/11/11 00:14:43;;;;;;;;;;;;;;;19.81;36.46;96096.72;1036040;28;797;-59
2021/11/11 00:15:13;;;;;;;;;;;;;;;19.82;36.31;96098.34;1041121;28;792;-58
2021/11/11 00:15:44;;;;;;;;;;;;;;;19.79;36.26;96096.22;1039880;28;753;-59
2021/11/11 00:16:15;;;;;;;;;;;;;;;19.79;36.40;96095.41;1039303;28;998;-59
2021/11/11 00:16:45;;;;;;;;;;;;;;;19.80;36.18;96102.25;1040926;28;844;-59
2021/11/11 00:17:16;;;;;;;;;;;;;;;19.78;36.18;96096.47;1040628;28;1073;-60
2021/11/11 00:17:46;;;;;;;;;;;;;;;19.76;36.35;96099.38;1040157;28;852;-59
2021/11/11 00:18:17;;;;;;;;;;;;;;;19.77;36.42;96098.31;1040652;28;935;-60
2021/11/11 00:18:47;;;;;;;;;;;;;;;19.76;36.29;96098.56;1040340;28;1006;-59
2021/11/11 00:19:17;;;;;;;;;;;;;;;19.76;36.21;96094.13;1040732;28;1046;-59
2021/11/11 00:19:47;;;;;;;;;;;;;;;19.76;36.33;96102.00;1040829;28;994;-60
2021/11/11 00:20:19;;;;;;;;;;;;;;;19.76;36.42;96101.22;1041000;28;932;-60
2021/11/11 00:20:49;;;;;;;;;;;;;;;19.77;36.29;96102.78;1040928;28;978;-60
2021/11/11 00:21:21;;;;;;;;;;;;;;;19.76;36.51;96102.00;1040490;28;1664;-59
2021/11/11 00:21:52;;;;;;;;;;;;;;;19.76;36.28;96095.94;1040439;28;1006;-60
2021/11/11 00:22:22;;;;;;;;;;;;;;;19.75;36.38;96102.25;1040472;28;859;-59
2021/11/11 00:22:53;;;;;;;;;;;;;;;19.75;36.36;96104.88;1040727;28;849;-58
2021/11/11 00:23:23;;;;;;;;;;;;;;;19.77;36.33;96108.03;1036396;28;1360;-59
2021/11/11 00:23:54;;;;;;;;;;;;;;;19.77;36.30;96108.03;1035960;28;762;-58
2021/11/11 00:24:24;;;;;;;;;;;;;;;19.75;36.39;96099.59;1035664;28;789;-57
2021/11/11 00:24:55;;;;;;;;;;;;;;;19.76;36.34;96104.63;1036708;28;1073;-61
2021/11/11 00:25:26;;;;;;;;;;;;;;;19.77;36.31;96108.03;1039973;28;1498;-60
2021/11/11 00:25:56;;;;;;;;;;;;;;;19.77;36.40;96103.56;1039998;28;1674;-57
2021/11/11 00:26:27;;;;;;;;;;;;;;;19.77;36.31;96105.41;1040500;28;1014;-58
2021/11/11 00:26:57;;;;;;;;;;;;;;;19.76;36.31;96111.72;1040628;28;1210;-59
2021/11/11 00:27:27;;;;;;;;;;;;;;;19.74;36.27;96103.31;1040895;28;773;-59
2021/11/11 00:27:58;;;;;;;;;;;;;;;19.75;36.35;96103.03;1041001;28;887;-58
2021/11/11 00:28:28;;;;;;;;;;;;;;;19.76;36.34;96106.47;1044223;28;812;-57
2021/11/11 00:28:59;;;;;;;;;;;;;;;19.75;36.21;96089.09;1044336;28;800;-59
2021/11/11 00:29:29;;;;;;;;;;;;;;;19.74;36.39;96095.41;1044563;28;804;-59
2021/11/11 00:30:00;;;;;;;;;;;;;;;19.73;36.29;96091.19;1044641;28;908;-59
2021/11/11 00:30:31;;;;;;;;;;;;;;;19.73;36.25;96091.97;1036206;28;1483;-58
2021/11/11 00:31:01;;;;;;;;;;;;;;;19.73;36.33;96093.81;1035374;28;864;-60
2021/11/11 00:31:31;;;;;;;;;;;;;;;19.74;36.32;96098.81;1031971;28;1269;-60
2021/11/11 00:32:02;;;;;;;;;;;;;;;19.72;36.22;96094.88;1032373;28;812;-59
2021/11/11 00:32:32;;;;;;;;;;;;;;;19.75;36.21;96094.34;1040096;28;757;-59
2021/11/11 00:33:03;;;;;;;;;;;;;;;19.73;36.36;96097.25;1036205;28;1959;-60
2021/11/11 00:33:33;;;;;;;;;;;;;;;19.72;35.99;96100.16;1036154;28;1327;-60
2021/11/11 00:34:03;;;;;;;;;;;;;;;19.71;36.28;96104.59;1036154;28;838;-60
2021/11/11 00:34:34;;;;;;;;;;;;;;;19.72;36.30;96097.50;1039862;28;1567;-60
2021/11/11 00:35:05;;;;;;;;;;;;;;;19.72;36.37;96100.16;1044604;28;829;-58
2021/11/11 00:35:37;;;;;;;;;;;;;;;19.74;36.22;96103.31;1044691;28;1062;-59
2021/11/11 00:36:07;;;;;;;;;;;;;;;19.73;36.32;96105.13;1043977;28;852;-60
2021/11/11 00:36:37;;;;;;;;;;;;;;;19.74;36.31;96108.56;1040741;28;1010;-60
2021/11/11 00:37:08;;;;;;;;;;;;;;;19.72;36.11;96110.66;1040438;28;1022;-61
2021/11/11 00:37:38;;;;;;;;;;;;;;;19.72;36.19;96100.91;1036252;28;777;-58
2021/11/11 00:38:09;;;;;;;;;;;;;;;19.73;36.23;96109.59;1036536;28;786;-59
2021/11/11 00:38:39;;;;;;;;;;;;;;;19.72;36.14;96110.66;1036149;28;1035;-60
2021/11/11 00:39:10;;;;;;;;;;;;;;;19.73;36.33;96113.03;1040138;28;1053;-60
2021/11/11 00:39:40;;;;;;;;;;;;;;;19.73;36.19;96112.22;1040313;28;1742;-59
2021/11/11 00:40:10;;;;;;;;;;;;;;;19.72;36.19;96108.81;1040410;28;826;-60
2021/11/11 00:40:41;;;;;;;;;;;;;;;19.73;36.11;96110.41;1040256;28;885;-59
2021/11/11 00:41:11;;;;;;;;;;;;;;;19.74;36.21;96113.81;1040546;28;849;-58
2021/11/11 00:41:42;;;;;;;;;;;;;;;19.73;36.23;96109.59;1040720;28;859;-60
2021/11/11 00:42:12;;;;;;;;;;;;;;;19.72;36.07;96115.94;1040203;28;1387;-60
2021/11/11 00:42:43;;;;;;;;;;;;;;;19.74;36.20;96113.81;1040440;28;868;-61
2021/11/11 00:43:14;;;;;;;;;;;;;;;19.74;36.21;96124.34;1040292;28;722;-59
2021/11/11 00:43:44;;;;;;;;;;;;;;;19.71;36.17;96112.50;1040479;28;1468;-60
2021/11/11 00:44:14;;;;;;;;;;;;;;;19.71;36.03;96106.44;1040157;28;741;-60
2021/11/11 00:44:45;;;;;;;;;;;;;;;19.69;36.24;96105.91;1040234;28;1047;-59
2021/11/11 00:45:16;;;;;;;;;;;;;;;19.70;36.19;96104.88;1040113;28;1434;-60
2021/11/11 00:45:46;;;;;;;;;;;;;;;19.69;36.20;96106.69;1040399;28;848;-60
2021/11/11 00:46:17;;;;;;;;;;;;;;;19.68;36.32;96106.97;1039202;28;1022;-60
2021/11/11 00:46:48;;;;;;;;;;;;;;;19.70;36.07;96104.88;1040407;28;796;-60
2021/11/11 00:47:18;;;;;;;;;;;;;;;19.68;36.23;96099.09;1040942;28;1018;-56
2021/11/11 00:47:49;;;;;;;;;;;;;;;19.68;36.18;96110.38;1040808;28;1010;-60
2021/11/11 00:48:19;;;;;;;;;;;;;;;19.68;36.31;96099.09;1040835;28;788;-58
2021/11/11 00:48:49;;;;;;;;;;;;;;;19.67;36.25;96111.44;1040842;28;808;-59
2021/11/11 00:49:20;;;;;;;;;;;;;;;19.67;36.24;96115.91;1040212;28;816;-59
2021/11/11 00:49:50;;;;;;;;;;;;;;;19.67;36.35;96108.00;1038356;28;1517;-59
2021/11/11 00:50:22;;;;;;;;;;;;;;;19.66;36.25;96112.47;1040097;28;796;-59
2021/11/11 00:50:53;;;;;;;;;;;;;;;19.68;36.11;96110.38;1040283;28;798;-60
2021/11/11 00:51:23;;;;;;;;;;;;;;;19.69;36.11;96105.91;1036424;28;1850;-59
2021/11/11 00:51:54;;;;;;;;;;;;;;;19.69;36.32;96101.44;1036266;28;1602;-60
2021/11/11 00:52:24;;;;;;;;;;;;;;;19.68;36.25;96096.44;1036199;28;907;-57
2021/11/11 00:52:54;;;;;;;;;;;;;;;19.68;36.02;96104.34;1036347;28;1914;-58
2021/11/11 00:53:25;;;;;;;;;;;;;;;19.68;36.20;96104.34;1040198;28;1367;-60
2021/11/11 00:53:55;;;;;;;;;;;;;;;19.68;36.09;96094.59;1044750;28;1072;-59
2021/11/11 00:54:26;;;;;;;;;;;;;;;19.69;36.12;96095.38;1039831;28;1522;-57
2021/11/11 00:54:56;;;;;;;;;;;;;;;19.68;35.99;96101.72;1036011;28;816;-60
2021/11/11 00:55:27;;;;;;;;;;;;;;;19.67;36.12;96097.50;1036257;28;760;-59
2021/11/11 00:55:57;;;;;;;;;;;;;;;19.66;36.06;96099.31;1036260;28;773;-60
2021/11/11 00:56:27;;;;;;;;;;;;;;;19.65;36.33;96095.13;1040172;28;967;-60
2021/11/11 00:56:58;;;;;;;;;;;;;;;19.66;36.14;96095.91;1040460;28;1338;-59
2021/11/11 00:57:28;;;;;;;;;;;;;;;19.67;36.20;96100.91;1040301;28;748;-60
2021/11/11 00:58:00;;;;;;;;;;;;;;;19.65;36.01;96097.75;1040430;28;1233;-59
2021/11/11 00:58:30;;;;;;;;;;;;;;;19.63;36.22;96096.44;1040175;28;966;-60
2021/11/11 00:59:00;;;;;;;;;;;;;;;19.63;36.27;96099.06;1044674;28;1394;-60
2021/11/11 00:59:31;;;;;;;;;;;;;;;19.64;36.27;96101.41;1039885;28;760;-60
2021/11/11 01:00:04;;;;;;;;;;;;;;;19.64;36.10;96098.03;1039927;28;921;-59
2021/11/11 01:00:37;;;;;;;;;;;;;;;19.64;36.06;96098.03;1040565;28;1022;-60
2021/11/11 01:01:07;;;;;;;;;;;;;;;19.63;36.31;96096.44;1038940;28;891;-60
2021/11/11 01:01:37;;;;;;;;;;;;;;;19.62;36.20;96100.88;1040228;28;994;-59
2021/11/11 01:02:09;;;;;;;;;;;;;;;19.64;36.18;96108.53;1040311;28;730;-58
2021/11/11 01:02:39;;;;;;;;;;;;;;;19.65;36.15;96099.59;1040641;28;772;-60
2021/11/11 01:03:10;;;;;;;;;;;;;;;19.65;36.11;96103.00;1044546;28;1162;-59
2021/11/11 01:03:40;;;;;;;;;;;;;;;19.64;36.41;96096.16;1039996;28;1470;-60
2021/11/11 01:04:11;;;;;;;;;;;;;;;19.63;36.26;96097.22;1040493;28;697;-58
2021/11/11 01:04:41;;;;;;;;;;;;;;;19.62;36.20;96094.84;1031653;28;1458;-59
2021/11/11 01:05:12;;;;;;;;;;;;;;;19.62;36.28;96094.84;1032117;28;710;-60
2021/11/11 01:05:42;;;;;;;;;;;;;;;19.62;36.31;96094.84;1036110;28;923;-59
2021/11/11 01:06:13;;;;;;;;;;;;;;;19.61;36.25;96103.78;1036199;28;975;-60
2021/11/11 01:06:43;;;;;;;;;;;;;;;19.61;36.36;96093.25;1040470;28;974;-59
2021/11/11 01:07:14;;;;;;;;;;;;;;;19.62;36.15;96105.38;1039945;28;1376;-59
2021/11/11 01:07:44;;;;;;;;;;;;;;;19.61;36.29;96099.31;1036133;28;795;-60
2021/11/11 01:08:14;;;;;;;;;;;;;;;19.60;36.35;96107.47;1036821;28;840;-59
2021/11/11 01:08:45;;;;;;;;;;;;;;;19.61;36.29;96103.78;1040140;28;939;-59
2021/11/11 01:09:15;;;;;;;;;;;;;;;19.61;36.38;96095.91;1040475;28;1034;-61
2021/11/11 01:09:45;;;;;;;;;;;;;;;19.60;36.20;96096.97;1040153;28;829;-60
2021/11/11 01:10:16;;;;;;;;;;;;;;;19.63;36.40;96104.31;1040549;28;745;-60
2021/11/11 01:10:46;;;;;;;;;;;;;;;19.63;36.15;96101.69;1040957;28;1038;-59
2021/11/11 01:11:16;;;;;;;;;;;;;;;19.63;36.18;96099.84;1040529;28;1017;-58
2021/11/11 01:11:47;;;;;;;;;;;;;;;19.63;36.14;96091.97;1040063;28;1030;-60
2021/11/11 01:12:17;;;;;;;;;;;;;;;19.68;36.26;96099.09;1040100;28;780;-60
2021/11/11 01:12:48;;;;;;;;;;;;;;;19.68;36.16;96096.44;1040418;28;1894;-60
2021/11/11 01:13:18;;;;;;;;;;;;;;;19.67;36.14;96092.22;1040583;28;1280;-60
2021/11/11 01:13:49;;;;;;;;;;;;;;;19.68;36.34;96093.81;1044237;28;1029;-60
2021/11/11 01:14:19;;;;;;;;;;;;;;;19.68;36.11;96099.09;1039997;28;1022;-60
2021/11/11 01:14:49;;;;;;;;;;;;;;;19.67;36.43;96092.22;1039714;28;1085;-60
2021/11/11 01:15:23;;;;;;;;;;;;;;;19.69;36.25;96096.19;1040308;28;856;-60
2021/11/11 01:15:53;;;;;;;;;;;;;;;19.68;36.18;96094.59;1040166;28;1472;-58
2021/11/11 01:16:24;;;;;;;;;;;;;;;19.69;36.31;96090.13;1043425;28;764;-60
2021/11/11 01:16:56;;;;;;;;;;;;;;;19.69;36.18;96090.94;1044465;28;812;-59
2021/11/11 01:17:26;;;;;;;;;;;;;;;19.76;36.06;96094.13;1040335;28;1069;-59
2021/11/11 01:17:57;;;;;;;;;;;;;;;19.76;36.08;96096.75;1040441;28;741;-60
2021/11/11 01:18:27;;;;;;;;;;;;;;;19.76;36.07;96101.22;1040220;28;826;-59
2021/11/11 01:18:58;;;;;;;;;;;;;;;19.77;36.16;96102.78;1040608;28;801;-59
2021/11/11 01:19:28;;;;;;;;;;;;;;;19.78;36.23;96099.09;1044066;28;780;-60
2021/11/11 01:19:58;;;;;;;;;;;;;;;19.81;36.19;96098.56;1040404;28;1101;-60
2021/11/11 01:20:29;;;;;;;;;;;;;;;19.82;35.94;96108.06;1039650;28;757;-60
2021/11/11 01:20:59;;;;;;;;;;;;;;;19.81;36.00;96109.88;1040148;28;730;-59
2021/11/11 01:21:29;;;;;;;;;;;;;;;19.83;36.10;96109.63;1040361;28;998;-60
2021/11/11 01:22:00;;;;;;;;;;;;;;;19.83;36.06;96107.00;1040112;28;995;-60
2021/11/11 01:22:30;;;;;;;;;;;;;;;19.85;36.07;96115.41;1039881;28;1026;-59
2021/11/11 01:23:01;;;;;;;;;;;;;;;19.85;35.88;96112.78;1040388;28;990;-60
2021/11/11 01:23:32;;;;;;;;;;;;;;;19.86;35.97;96119.63;1040286;28;1351;-60
2021/11/11 01:24:02;;;;;;;;;;;;;;;19.86;35.99;96115.19;1040365;28;700;-60
2021/11/11 01:24:32;;;;;;;;;;;;;;;19.88;35.93;96122.81;1039809;28;797;-59
2021/11/11 01:25:06;;;;;;;;;;;;;;;19.88;36.00;96120.97;1040744;28;781;-60
2021/11/11 01:25:37;;;;;;;;;;;;;;;19.89;35.80;96127.78;1039848;28;1018;-60
2021/11/11 01:26:07;;;;;;;;;;;;;;;19.90;35.93;96123.34;1040065;28;1018;-56
2021/11/11 01:26:38;;;;;;;;;;;;;;;19.90;35.99;96120.69;1040271;28;829;-60
2021/11/11 01:27:08;;;;;;;;;;;;;;;19.90;36.01;96115.44;1040347;28;990;-60
2021/11/11 01:27:38;;;;;;;;;;;;;;;19.91;35.97;96117.00;1040506;28;516;-60
2021/11/11 01:28:09;;;;;;;;;;;;;;;19.95;35.97;96110.16;1040591;28;788;-61
2021/11/11 01:28:39;;;;;;;;;;;;;;;19.96;35.80;96112.56;1040319;28;860;-59
2021/11/11 01:29:09;;;;;;;;;;;;;;;19.97;35.90;96114.13;1040406;28;920;-58
2021/11/11 01:29:40;;;;;;;;;;;;;;;20.01;35.87;96119.69;1040854;28;1030;-59
2021/11/11 01:30:11;;;;;;;;;;;;;;;20.02;35.93;96116.78;1040586;28;871;-59
2021/11/11 01:30:42;;;;;;;;;;;;;;;20.03;35.85;96114.94;1039175;28;959;-59
2021/11/11 01:31:12;;;;;;;;;;;;;;;20.04;35.77;96113.88;1038711;28;761;-58
2021/11/11 01:31:42;;;;;;;;;;;;;;;20.06;35.70;96122.31;1040312;28;837;-59
2021/11/11 01:32:13;;;;;;;;;;;;;;;20.05;35.78;96116.25;1040023;28;734;-59
2021/11/11 01:32:43;;;;;;;;;;;;;;;20.09;35.79;96119.16;1040257;28;2324;-59
2021/11/11 01:33:13;;;;;;;;;;;;;;;20.07;35.84;96124.66;1040194;28;837;-57
2021/11/11 01:33:45;;;;;;;;;;;;;;;20.10;35.65;96121.53;1039635;28;1205;-59
2021/11/11 01:34:15;;;;;;;;;;;;;;;20.09;35.68;96117.31;1040275;28;1030;-60
2021/11/11 01:34:46;;;;;;;;;;;;;;;20.09;35.69;96122.56;1039955;28;812;-58
2021/11/11 01:35:16;;;;;;;;;;;;;;;20.13;35.55;96122.84;1039788;28;771;-59
2021/11/11 01:35:47;;;;;;;;;;;;;;;20.13;35.66;96120.22;1039800;28;871;-59
2021/11/11 01:36:17;;;;;;;;;;;;;;;20.14;35.52;96116.53;1036260;28;943;-59
2021/11/11 01:36:47;;;;;;;;;;;;;;;20.14;35.65;96119.16;1039213;28;1601;-59
2021/11/11 01:37:18;;;;;;;;;;;;;;;20.14;35.68;96108.63;1040258;28;1002;-59
2021/11/11 01:37:48;;;;;;;;;;;;;;;20.15;35.72;96110.22;1040142;28;812;-59
2021/11/11 01:38:19;;;;;;;;;;;;;;;20.17;35.42;96113.38;1040135;28;875;-59
2021/11/11 01:38:49;;;;;;;;;;;;;;;20.16;35.57;96111.78;1040499;28;947;-59
2021/11/11 01:39:20;;;;;;;;;;;;;;;20.18;35.45;96104.41;1040274;28;812;-57
2021/11/11 01:39:50;;;;;;;;;;;;;;;20.18;35.58;96101.78;1040140;28;874;-59
2021/11/11 01:40:21;;;;;;;;;;;;;;;20.17;35.42;96094.97;1040193;28;680;-59
2021/11/11 01:40:52;;;;;;;;;;;;;;;20.20;35.49;96094.44;1039686;28;804;-59
2021/11/11 01:41:23;;;;;;;;;;;;;;;20.20;35.43;96097.06;1040333;28;797;-58
2021/11/11 01:41:53;;;;;;;;;;;;;;;20.21;35.60;96098.69;1040566;28;847;-58
2021/11/11 01:42:24;;;;;;;;;;;;;;;20.21;35.45;96088.94;1040213;28;946;-58
2021/11/11 01:42:55;;;;;;;;;;;;;;;20.23;35.56;96101.84;1040323;28;812;-59
2021/11/11 01:43:25;;;;;;;;;;;;;;;20.21;35.58;96094.22;1040202;28;1409;-60
2021/11/11 01:43:56;;;;;;;;;;;;;;;20.20;35.55;96092.59;1039857;28;777;-58
2021/11/11 01:44:26;;;;;;;;;;;;;;;20.21;35.46;96091.56;1039551;28;788;-56
2021/11/11 01:44:57;;;;;;;;;;;;;;;20.22;35.35;96095.78;1039927;28;758;-59
2021/11/11 01:45:31;;;;;;;;;;;;;;;20.22;35.50;96093.13;1040337;28;757;-59
2021/11/11 01:46:02;;;;;;;;;;;;;;;20.22;35.31;96100.25;1038875;28;784;-59
2021/11/11 01:46:32;;;;;;;;;;;;;;;20.22;35.48;96097.59;1039837;28;848;-59
2021/11/11 01:47:03;;;;;;;;;;;;;;;20.21;35.48;96094.22;1040167;28;884;-59
2021/11/11 01:47:33;;;;;;;;;;;;;;;20.23;35.30;96093.94;1040287;28;848;-59
2021/11/11 01:48:04;;;;;;;;;;;;;;;20.23;35.40;96093.94;1040567;28;955;-59
2021/11/11 01:48:35;;;;;;;;;;;;;;;20.21;35.50;96099.47;1040615;28;860;-59
2021/11/11 01:49:05;;;;;;;;;;;;;;;20.26;35.42;96091.56;1040445;28;1022;-58
2021/11/11 01:49:36;;;;;;;;;;;;;;;20.25;35.46;96091.84;1040315;28;1092;-59
2021/11/11 01:50:06;;;;;;;;;;;;;;;20.24;35.63;96092.88;1040013;28;1014;-59
2021/11/11 01:50:39;;;;;;;;;;;;;;;20.24;35.21;96090.22;1040327;28;896;-58
2021/11/11 01:51:10;;;;;;;;;;;;;;;20.23;35.21;96097.38;1039221;28;811;-59
2021/11/11 01:51:41;;;;;;;;;;;;;;;20.23;35.26;96097.38;1040044;28;754;-59
2021/11/11 01:52:13;;;;;;;;;;;;;;;20.25;35.27;96097.09;1039614;28;790;-59
2021/11/11 01:52:43;;;;;;;;;;;;;;;20.22;35.37;96090.50;1036117;28;1910;-60
2021/11/11 01:53:14;;;;;;;;;;;;;;;20.24;35.15;96093.66;1036169;28;820;-59
2021/11/11 01:53:44;;;;;;;;;;;;;;;20.23;35.40;96089.47;1040168;28;1291;-59
2021/11/11 01:54:15;;;;;;;;;;;;;;;20.24;35.08;96088.41;1039952;28;840;-59
2021/11/11 01:54:45;;;;;;;;;;;;;;;20.24;35.29;96087.59;1039689;28;1038;-59
2021/11/11 01:55:16;;;;;;;;;;;;;;;20.25;35.26;96086.56;1039983;28;855;-58
2021/11/11 01:55:46;;;;;;;;;;;;;;;20.24;35.25;96088.41;1040286;28;691;-58
2021/11/11 01:56:17;;;;;;;;;;;;;;;20.25;35.19;96086.56;1039630;28;772;-58
2021/11/11 01:56:48;;;;;;;;;;;;;;;20.24;35.17;96087.59;1040563;28;1014;-59
2021/11/11 01:57:18;;;;;;;;;;;;;;;20.24;35.09;96082.34;1040178;28;1026;-59
2021/11/11 01:57:50;;;;;;;;;;;;;;;20.23;35.05;96086.84;1040435;28;1118;-59
2021/11/11 01:58:20;;;;;;;;;;;;;;;20.24;35.26;96082.34;1040078;28;1343;-59
2021/11/11 01:58:51;;;;;;;;;;;;;;;20.24;35.08;96084.97;1040657;28;828;-59
2021/11/11 01:59:22;;;;;;;;;;;;;;;20.24;35.11;96082.34;1040071;28;1045;-59
2021/11/11 01:59:52;;;;;;;;;;;;;;;20.25;35.15;96082.09;1036177;28;1495;-59
2021/11/11 02:00:33;;;;;;;;;;;;;;;20.24;35.02;96083.13;1035659;28;793;-59
2021/11/11 02:01:03;;;;;;;;;;;;;;;20.25;35.06;96083.94;1035903;28;793;-58
2021/11/11 02:01:33;;;;;;;;;;;;;;;20.25;34.97;96083.94;1041118;28;1347;-59
2021/11/11 02:02:04;;;;;;;;;;;;;;;20.24;35.04;96077.88;1044323;28;737;-58
2021/11/11 02:02:34;;;;;;;;;;;;;;;20.24;34.92;96077.88;1043983;28;1442;-55
2021/11/11 02:03:05;;;;;;;;;;;;;;;20.24;35.10;96080.50;1044520;28;812;-59
2021/11/11 02:03:35;;;;;;;;;;;;;;;20.24;34.92;96075.25;1040044;28;1304;-58
2021/11/11 02:04:06;;;;;;;;;;;;;;;20.26;34.95;96080.22;1040363;28;773;-59
2021/11/11 02:04:36;;;;;;;;;;;;;;;20.23;34.98;96076.31;1038684;28;1700;-59
2021/11/11 02:05:07;;;;;;;;;;;;;;;20.25;34.96;96073.41;1039126;28;1002;-59
2021/11/11 02:05:37;;;;;;;;;;;;;;;20.24;34.97;96074.44;1039768;28;870;-59
2021/11/11 02:06:07;;;;;;;;;;;;;;;20.24;35.02;96071.81;1039922;28;868;-58
2021/11/11 02:06:38;;;;;;;;;;;;;;;20.24;35.11;96074.44;1039486;28;1471;-57
2021/11/11 02:07:08;;;;;;;;;;;;;;;20.24;34.86;96077.88;1040195;28;765;-59
2021/11/11 02:07:39;;;;;;;;;;;;;;;20.24;35.10;96069.19;1044153;28;851;-59
2021/11/11 02:08:11;;;;;;;;;;;;;;;20.24;34.92;96064.72;1044229;28;804;-59
2021/11/11 02:08:54;;;;;;;;;;;;;;;20.26;35.01;96072.34;1040548;28;820;-59
2021/11/11 02:09:25;;;;;;;;;;;;;;;20.25;34.98;96068.13;1040609;28;872;-59
2021/11/11 02:10:06;;;;;;;;;;;;;;;20.24;34.89;96072.59;1039620;28;1338;-59
2021/11/11 02:10:37;;;;;;;;;;;;;;;20.25;34.74;96074.19;1035908;28;1574;-59
2021/11/11 02:11:08;;;;;;;;;;;;;;;20.26;34.88;96067.06;1035592;28;786;-59
2021/11/11 02:11:40;;;;;;;;;;;;;;;20.27;35.05;96073.94;1036444;28;1023;-60
2021/11/11 02:12:31;;;;;;;;;;;;;;;20.26;35.01;96065.22;1040695;28;1069;-58
2021/11/11 02:13:21;;;;;;;;;;;;;;;20.26;34.90;96067.06;1042923;28;1194;-59
2021/11/11 02:13:52;;;;;;;;;;;;;;;20.24;34.95;96063.91;1043959;28;1129;-58
2021/11/11 02:14:22;;;;;;;;;;;;;;;20.23;35.02;96057.09;1043532;28;848;-59
2021/11/11 02:14:52;;;;;;;;;;;;;;;20.24;34.99;96063.91;1043565;28;824;-59
2021/11/11 02:15:23;;;;;;;;;;;;;;;20.22;34.84;96061.56;1044102;28;797;-59
2021/11/11 02:15:59;;;;;;;;;;;;;;;20.25;34.96;96057.59;1038872;28;1765;-60
2021/11/11 02:16:36;;;;;;;;;;;;;;;20.24;35.06;96059.44;1036053;28;1230;-59
2021/11/11 02:17:27;;;;;;;;;;;;;;;20.26;34.96;96067.06;1035771;28;1081;-58
2021/11/11 02:18:17;;;;;;;;;;;;;;;20.25;34.98;96061.03;1040381;28;1236;-58
2021/11/11 02:18:56;;;;;;;;;;;;;;;20.24;34.84;96061.28;1040524;28;852;-56
2021/11/11 02:19:27;;;;;;;;;;;;;;;20.24;34.81;96059.44;1040623;28;832;-56
2021/11/11 02:19:57;;;;;;;;;;;;;;;20.24;34.96;96058.66;1040045;28;812;-59
2021/11/11 02:20:28;;;;;;;;;;;;;;;20.23;34.83;96064.97;1039852;28;1336;-59
2021/11/11 02:21:00;;;;;;;;;;;;;;;20.23;35.04;96065.78;1040003;28;1057;-58
2021/11/11 02:21:37;;;;;;;;;;;;;;;20.24;34.84;96058.66;1039961;28;1153;-59
2021/11/11 02:22:27;;;;;;;;;;;;;;;20.23;34.92;96070.25;1041165;28;1163;-59
2021/11/11 02:23:19;;;;;;;;;;;;;;;20.25;34.77;96065.50;1042428;28;815;-57
2021/11/11 02:24:09;;;;;;;;;;;;;;;20.25;34.76;96068.13;1040344;28;650;-58
2021/11/11 02:25:00;;;;;;;;;;;;;;;20.25;34.76;96068.13;1040028;28;971;-59
2021/11/11 02:25:30;;;;;;;;;;;;;;;20.22;34.85;96061.56;1040232;28;871;-59
2021/11/11 02:26:03;;;;;;;;;;;;;;;20.26;34.81;96064.44;1039768;28;1534;-59
2021/11/11 02:26:33;;;;;;;;;;;;;;;20.24;34.70;96061.28;1039959;28;831;-59
2021/11/11 02:27:04;;;;;;;;;;;;;;;20.24;34.94;96058.66;1040006;28;856;-59
2021/11/11 02:27:48;;;;;;;;;;;;;;;20.24;34.84;96061.28;1042334;28;1241;-59
2021/11/11 02:28:19;;;;;;;;;;;;;;;20.26;34.68;96059.16;1039976;28;820;-59
2021/11/11 02:28:59;;;;;;;;;;;;;;;20.24;34.81;96061.28;1036032;28;1123;-59
2021/11/11 02:29:50;;;;;;;;;;;;;;;20.24;34.69;96061.28;1036132;28;816;-59
2021/11/11 02:30:41;;;;;;;;;;;;;;;20.23;34.89;96055.25;1039900;28;821;-59
2021/11/11 02:31:31;;;;;;;;;;;;;;;20.23;34.69;96057.88;1040413;28;714;-59
2021/11/11 02:32:10;;;;;;;;;;;;;;;20.22;34.75;96056.28;1040078;28;761;-59
2021/11/11 02:32:40;;;;;;;;;;;;;;;20.24;34.77;96056.00;1039473;28;1914;-60
2021/11/11 02:33:11;;;;;;;;;;;;;;;20.25;34.82;96063.66;1040118;28;800;-59
2021/11/11 02:33:42;;;;;;;;;;;;;;;20.24;34.83;96061.28;1040062;28;1391;-58
2021/11/11 02:34:12;;;;;;;;;;;;;;;20.26;34.66;96064.44;1035724;28;1497;-57
2021/11/11 02:34:45;;;;;;;;;;;;;;;20.21;34.89;96057.34;1035374;28;1397;-59
2021/11/11 02:35:15;;;;;;;;;;;;;;;20.23;34.80;96059.72;1035925;28;1257;-60
2021/11/11 02:35:46;;;;;;;;;;;;;;;20.21;34.86;96060.00;1039980;28;1006;-58
2021/11/11 02:36:16;;;;;;;;;;;;;;;20.22;34.85;96069.44;1039698;28;744;-58
2021/11/11 02:36:59;;;;;;;;;;;;;;;20.24;34.63;96066.53;1039670;28;1002;-57
2021/11/11 02:37:30;;;;;;;;;;;;;;;20.23;34.84;96070.25;1040031;28;864;-59
2021/11/11 02:38:00;;;;;;;;;;;;;;;20.22;34.82;96064.19;1040168;28;815;-59
2021/11/11 02:38:30;;;;;;;;;;;;;;;20.22;34.75;96073.91;1039958;28;1018;-59
2021/11/11 02:39:01;;;;;;;;;;;;;;;20.22;34.88;96074.72;1039992;28;1030;-57
2021/11/11 02:39:32;;;;;;;;;;;;;;;20.23;34.68;96070.25;1040557;28;844;-59
2021/11/11 02:40:06;;;;;;;;;;;;;;;20.25;34.87;96068.94;1039953;28;1002;-60
2021/11/11 02:40:36;;;;;;;;;;;;;;;20.23;34.67;96068.41;1040514;28;915;-59
2021/11/11 02:41:07;;;;;;;;;;;;;;;20.22;34.78;96068.66;1040198;28;987;-59
2021/11/11 02:41:37;;;;;;;;;;;;;;;20.21;34.69;96067.88;1040331;28;745;-59
2021/11/11 02:42:08;;;;;;;;;;;;;;;20.23;34.70;96073.66;1039849;28;1026;-59
2021/11/11 02:42:38;;;;;;;;;;;;;;;20.21;34.70;96067.88;1039829;28;1168;-59
2021/11/11 02:43:08;;;;;;;;;;;;;;;20.23;34.71;96064.97;1039844;28;1046;-60
2021/11/11 02:43:39;;;;;;;;;;;;;;;20.26;34.57;96064.44;1036077;28;1316;-59
2021/11/11 02:44:10;;;;;;;;;;;;;;;20.23;34.73;96067.63;1036186;28;563;-59
2021/11/11 02:44:42;;;;;;;;;;;;;;;20.24;34.76;96063.91;1039533;28;818;-59
2021/11/11 02:45:13;;;;;;;;;;;;;;;20.21;34.77;96057.34;1039532;28;852;-59
2021/11/11 02:45:45;;;;;;;;;;;;;;;20.21;34.60;96062.63;1040292;28;830;-59
2021/11/11 02:46:16;;;;;;;;;;;;;;;20.21;34.69;96064.44;1038771;28;1014;-59
2021/11/11 02:46:46;;;;;;;;;;;;;;;20.20;34.52;96066.28;1040491;28;872;-58
2021/11/11 02:47:17;;;;;;;;;;;;;;;20.18;34.64;96057.84;1040355;28;1033;-57
2021/11/11 02:47:47;;;;;;;;;;;;;;;20.20;34.79;96061.03;1040278;28;955;-58
2021/11/11 02:48:19;;;;;;;;;;;;;;;20.19;34.68;96064.72;1040416;28;1041;-59